Time;durP1;ratioP1;P1;durP2;ratioP2;P2;SDS_P1;SDS_P2;PMS_P1;PMS_P2;Temp;Humidity;BMP_temperature;BMP_pressure;BME280_temperature;BME280_humidity;BME280_pressure;Samples;Min_cycle;Max_cycle;Signal;HPM_P1;HPM_P2
2022/04/22 00:01:20;;;;;;;16.75;9.07;;;13.50;99.90;;;;;;4957927;29;20027;-70
2022/04/22 00:03:46;;;;;;;14.73;9.98;;;13.50;99.90;;;;;;4957970;29;20041;-70
2022/04/22 00:06:13;;;;;;;20.05;10.40;;;13.50;99.90;;;;;;4940600;29;20412;-70
2022/04/22 00:08:39;;;;;;;15.20;9.93;;;13.50;99.90;;;;;;4957588;29;20450;-70
2022/04/22 00:13:50;;;;;;;19.45;11.55;;;13.50;99.90;;;;;;4957783;29;20035;-70
2022/04/22 00:16:17;;;;;;;21.65;11.60;;;13.50;99.90;;;;;;4957579;28;20048;-71
2022/04/22 00:18:44;;;;;;;18.45;10.18;;;13.50;99.90;;;;;;4957598;29;20030;-70
2022/04/22 00:21:10;;;;;;;18.50;10.05;;;13.40;99.90;;;;;;4957539;29;20031;-70
2022/04/22 00:23:36;;;;;;;16.60;9.30;;;13.40;99.90;;;;;;4940310;29;20031;-70
2022/04/22 00:26:02;;;;;;;16.55;10.05;;;13.40;99.90;;;;;;4957476;29;20373;-69
2022/04/22 00:28:28;;;;;;;18.58;9.73;;;13.40;99.90;;;;;;4940188;29;20023;-69
2022/04/22 00:30:55;;;;;;;18.02;8.50;;;13.40;99.90;;;;;;4957091;29;20047;-69
2022/04/22 00:33:21;;;;;;;14.82;8.60;;;13.40;99.90;;;;;;4940079;29;20069;-69
2022/04/22 00:35:47;;;;;;;15.00;8.43;;;13.40;99.90;;;;;;4957480;29;20079;-69
2022/04/22 00:38:13;;;;;;;15.15;8.00;;;13.40;99.90;;;;;;4940053;29;20070;-69
2022/04/22 00:40:38;;;;;;;13.90;7.28;;;13.40;99.90;;;;;;4956946;29;20048;-71
2022/04/22 00:43:21;;;;;;;11.60;7.63;;;13.40;99.90;;;;;;4957245;29;20023;-69
2022/04/22 00:45:48;;;;;;;15.43;8.10;;;13.40;99.90;;;;;;4957108;29;20062;-69
2022/04/22 00:48:16;;;;;;;22.90;9.73;;;13.40;99.90;;;;;;4957117;29;20027;-68
2022/04/22 00:50:42;;;;;;;16.90;8.10;;;13.40;99.90;;;;;;4956706;28;20031;-69
2022/04/22 00:53:09;;;;;;;14.68;8.55;;;13.40;99.90;;;;;;4939744;29;20448;-69
2022/04/22 00:55:37;;;;;;;17.20;8.82;;;13.30;99.90;;;;;;4957017;28;20377;-68
2022/04/22 00:58:04;;;;;;;14.73;8.00;;;13.40;99.90;;;;;;4956846;29;20174;-69
2022/04/22 01:00:31;;;;;;;12.43;8.10;;;13.40;99.90;;;;;;4956872;29;20032;-69
2022/04/22 01:02:57;;;;;;;16.92;9.20;;;13.40;99.90;;;;;;4939612;29;20027;-68
2022/04/22 01:10:53;;;;;;;17.98;8.63;;;13.40;99.90;;;;;;4956469;29;20043;-68
2022/04/22 01:13:20;;;;;;;15.60;8.60;;;13.40;99.90;;;;;;4956820;29;20031;-68
2022/04/22 01:15:46;;;;;;;21.50;9.88;;;13.40;99.90;;;;;;4939253;29;20106;-69
2022/04/22 01:18:13;;;;;;;19.00;9.02;;;13.40;99.90;;;;;;4956508;29;20031;-69
2022/04/22 01:20:39;;;;;;;17.95;8.00;;;13.40;99.90;;;;;;4956453;28;20035;-69
2022/04/22 01:23:05;;;;;;;19.98;9.45;;;13.40;99.90;;;;;;4939215;29;20491;-69
2022/04/22 01:25:31;;;;;;;21.30;9.40;;;13.40;99.90;;;;;;4939147;29;20114;-69
2022/04/22 01:27:57;;;;;;;24.70;11.05;;;13.40;99.90;;;;;;4956630;29;20038;-69
2022/04/22 01:30:24;;;;;;;37.60;17.45;;;13.40;99.90;;;;;;4956380;29;20031;-68
2022/04/22 01:32:56;;;;;;;63.78;30.75;;;13.40;99.90;;;;;;4956286;29;20035;-68
2022/04/22 01:35:22;;;;;;;88.57;46.55;;;13.40;99.90;;;;;;4956321;29;20480;-68
2022/04/22 01:37:48;;;;;;;80.78;40.42;;;13.30;99.90;;;;;;4956100;29;20118;-70
2022/04/22 01:40:15;;;;;;;60.28;32.08;;;13.30;99.90;;;;;;4956164;29;20065;-70
2022/04/22 01:42:42;;;;;;;42.20;21.95;;;13.30;99.90;;;;;;4956119;29;20027;-70
2022/04/22 01:45:09;;;;;;;36.05;16.30;;;13.30;99.90;;;;;;4956059;29;20523;-69
2022/04/22 01:47:35;;;;;;;26.05;12.43;;;13.30;99.90;;;;;;4956015;29;20031;-69
2022/04/22 01:50:01;;;;;;;29.05;12.45;;;13.30;99.90;;;;;;4938576;29;20031;-71
2022/04/22 01:52:27;;;;;;;29.48;12.52;;;13.30;99.90;;;;;;4938718;29;20117;-71
2022/04/22 01:54:56;;;;;;;22.50;12.10;;;13.30;99.90;;;;;;4955927;29;20376;-71
2022/04/22 01:57:23;;;;;;;22.73;11.13;;;13.30;99.90;;;;;;4955772;29;20038;-71
2022/04/22 01:59:49;;;;;;;24.80;11.52;;;13.30;99.90;;;;;;4938548;29;20031;-71
2022/04/22 02:02:19;;;;;;;23.80;11.93;;;13.20;99.90;;;;;;4938039;29;20093;-70
2022/04/22 02:04:45;;;;;;;27.08;11.48;;;13.30;99.90;;;;;;4955663;29;20059;-70
2022/04/22 02:07:11;;;;;;;24.00;10.27;;;13.30;99.90;;;;;;4955586;29;20027;-70
2022/04/22 02:09:37;;;;;;;29.00;13.23;;;13.30;99.90;;;;;;4955420;29;20322;-69
2022/04/22 02:12:04;;;;;;;34.13;16.70;;;13.30;99.90;;;;;;4955184;29;20028;-69
2022/04/22 02:14:30;;;;;;;60.95;31.95;;;13.30;99.90;;;;;;4955552;29;20156;-70
2022/04/22 02:16:56;;;;;;;46.38;23.65;;;13.30;99.90;;;;;;4938131;29;20403;-69
2022/04/22 02:19:22;;;;;;;47.55;22.38;;;13.20;99.90;;;;;;4955979;29;20027;-69
2022/04/22 02:21:49;;;;;;;38.28;17.40;;;13.20;99.90;;;;;;4955370;29;20571;-69
2022/04/22 02:24:15;;;;;;;39.58;18.13;;;13.20;99.90;;;;;;4955181;29;20531;-69
2022/04/22 02:29:40;;;;;;;23.40;11.02;;;13.10;99.90;;;;;;4886176;29;20045;-69
2022/04/22 02:32:06;;;;;;;20.10;11.38;;;13.20;99.90;;;;;;4955366;29;20059;-68
2022/04/22 02:34:32;;;;;;;22.80;12.32;;;13.10;99.90;;;;;;4954998;29;20408;-68
2022/04/22 02:36:58;;;;;;;41.83;17.27;;;13.00;99.90;;;;;;4955175;29;20119;-68
2022/04/22 02:39:24;;;;;;;54.10;25.45;;;12.90;99.90;;;;;;4955179;29;20082;-69
2022/04/22 02:47:18;;;;;;;93.25;46.67;;;13.00;99.90;;;;;;4954835;29;20089;-68
2022/04/22 02:49:44;;;;;;;46.83;25.70;;;13.00;99.90;;;;;;4955063;29;20027;-68
2022/04/22 02:52:15;;;;;;;39.35;20.20;;;12.90;99.90;;;;;;4955000;29;20028;-69
2022/04/22 02:54:41;;;;;;;35.97;20.00;;;12.90;99.90;;;;;;4937922;29;20031;-68
2022/04/22 02:57:09;;;;;;;30.98;15.48;;;12.90;99.90;;;;;;4954949;29;20066;-68
2022/04/22 02:59:37;;;;;;;38.58;18.52;;;12.90;99.90;;;;;;4937763;29;20032;-68
2022/04/22 03:02:05;;;;;;;100.60;52.72;;;12.90;99.90;;;;;;4954950;29;20024;-68
2022/04/22 03:04:30;;;;;;;72.35;39.17;;;12.90;99.90;;;;;;4938035;29;20372;-69
2022/04/22 03:06:56;;;;;;;42.05;22.95;;;12.90;99.90;;;;;;4954605;29;20027;-69
2022/04/22 03:09:23;;;;;;;48.42;25.58;;;12.80;99.90;;;;;;4954962;29;20039;-68
2022/04/22 03:11:49;;;;;;;39.85;21.02;;;12.80;99.90;;;;;;4954869;29;20020;-68
2022/04/22 03:14:14;;;;;;;43.83;20.63;;;12.80;99.90;;;;;;4954911;28;20472;-68
2022/04/22 03:16:42;;;;;;;51.42;20.10;;;12.80;99.90;;;;;;4958684;29;20027;-68
2022/04/22 03:19:08;;;;;;;31.17;15.77;;;12.80;99.90;;;;;;4959002;29;20030;-68
2022/04/22 03:21:34;;;;;;;34.60;17.67;;;12.80;99.90;;;;;;4958674;29;20031;-68
2022/04/22 03:24:00;;;;;;;37.15;20.05;;;12.80;99.90;;;;;;4958682;29;20035;-68
2022/04/22 03:26:26;;;;;;;37.85;22.70;;;12.70;99.90;;;;;;4958335;29;20534;-70
2022/04/22 03:28:52;;;;;;;48.70;28.40;;;12.70;99.90;;;;;;4941519;29;20035;-71
2022/04/22 03:31:19;;;;;;;37.97;22.95;;;12.70;99.90;;;;;;4940995;29;20135;-70
2022/04/22 03:33:45;;;;;;;32.10;18.83;;;12.70;99.90;;;;;;4941125;29;20038;-69
2022/04/22 03:36:12;;;;;;;40.67;18.38;;;12.70;99.90;;;;;;4958186;29;20152;-69
2022/04/22 03:38:38;;;;;;;37.65;15.52;;;12.70;99.90;;;;;;4958078;29;20472;-67
2022/04/22 03:41:04;;;;;;;32.03;15.77;;;12.70;99.90;;;;;;4940989;29;20038;-69
2022/04/22 03:43:30;;;;;;;33.00;15.48;;;12.70;99.90;;;;;;4958349;29;20035;-68
2022/04/22 03:45:55;;;;;;;40.38;16.83;;;12.70;99.90;;;;;;4958018;29;20042;-67
2022/04/22 03:48:21;;;;;;;39.47;18.48;;;12.70;99.90;;;;;;4958480;29;20027;-68
2022/04/22 03:50:47;;;;;;;34.45;17.08;;;12.70;99.90;;;;;;4957859;29;20050;-68
2022/04/22 03:53:13;;;;;;;30.05;16.23;;;12.70;99.90;;;;;;4958101;29;20030;-67
2022/04/22 03:55:40;;;;;;;29.02;15.82;;;12.70;99.90;;;;;;4957852;29;20387;-68
2022/04/22 03:58:12;;;;;;;38.92;19.42;;;12.60;99.90;;;;;;4940744;29;20043;-68
2022/04/22 04:00:48;;;;;;;32.10;19.25;;;12.60;99.90;;;;;;4958031;29;20038;-68
2022/04/22 04:03:18;;;;;;;42.58;22.73;;;12.70;99.90;;;;;;4957939;29;20081;-68
2022/04/22 04:05:48;;;;;;;47.07;25.60;;;12.70;99.90;;;;;;4958191;29;20102;-68
2022/04/22 04:08:14;;;;;;;47.25;24.75;;;12.70;99.90;;;;;;4940596;29;20468;-66
2022/04/22 04:16:10;;;;;;;26.77;15.43;;;12.70;99.90;;;;;;4957318;29;20134;-68
2022/04/22 04:18:37;;;;;;;28.38;14.30;;;12.70;99.90;;;;;;4957613;29;20086;-67
2022/04/22 04:23:50;;;;;;;31.45;15.60;;;12.70;99.90;;;;;;4957587;29;20069;-68
2022/04/22 04:26:17;;;;;;;27.92;15.15;;;12.70;99.90;;;;;;4956865;28;20115;-68
2022/04/22 04:28:44;;;;;;;28.33;14.65;;;12.70;99.90;;;;;;4957463;29;20110;-68
2022/04/22 04:31:13;;;;;;;29.65;15.15;;;12.70;99.90;;;;;;4957092;29;20043;-67
2022/04/22 04:33:40;;;;;;;36.80;17.77;;;12.70;99.90;;;;;;4940370;29;20387;-68
2022/04/22 04:36:10;;;;;;;27.85;15.65;;;12.80;99.90;;;;;;4957024;29;20067;-69
2022/04/22 04:38:37;;;;;;;55.35;28.70;;;12.80;99.90;;;;;;4957285;29;20117;-69
2022/04/22 04:41:03;;;;;;;55.35;33.70;;;12.80;99.90;;;;;;4939989;29;20027;-70
2022/04/22 04:43:29;;;;;;;34.10;20.33;;;12.80;99.90;;;;;;4957224;28;20031;-69
2022/04/22 04:45:55;;;;;;;31.48;18.10;;;12.80;99.90;;;;;;4957047;29;20508;-69
2022/04/22 04:48:21;;;;;;;30.48;15.95;;;12.80;99.90;;;;;;4957139;29;20036;-69
2022/04/22 04:50:49;;;;;;;37.25;16.35;;;12.70;99.90;;;;;;4939836;29;20077;-69
2022/04/22 04:53:14;;;;;;;23.30;13.73;;;12.70;99.90;;;;;;4956984;29;20114;-68
2022/04/22 04:55:41;;;;;;;24.90;14.57;;;12.60;99.90;;;;;;4957028;29;20174;-63
2022/04/22 04:58:07;;;;;;;36.22;15.07;;;12.50;99.90;;;;;;4956900;29;20039;-64
2022/04/22 05:00:34;;;;;;;26.05;13.75;;;12.50;99.90;;;;;;4956943;29;20106;-64
2022/04/22 05:03:00;;;;;;;23.55;14.55;;;12.50;99.90;;;;;;4956900;28;20028;-64
2022/04/22 05:05:26;;;;;;;25.48;14.90;;;12.50;99.90;;;;;;4957160;29;20036;-64
2022/04/22 05:07:57;;;;;;;37.30;18.45;;;;;;;;;;4939091;29;20038;-64
2022/04/22 05:10:24;;;;;;;32.47;17.45;;;;;;;;;;4956796;29;20070;-63
2022/04/22 05:12:50;;;;;;;35.35;16.42;;;12.80;99.90;;;;;;4956697;29;20027;-63
2022/04/22 05:15:18;;;;;;;23.20;13.55;;;12.90;99.90;;;;;;4956670;29;20042;-65
2022/04/22 05:17:45;;;;;;;21.38;13.00;;;12.90;99.90;;;;;;4956857;29;20094;-64
2022/04/22 05:20:12;;;;;;;34.55;15.60;;;13.00;99.90;;;;;;4946539;29;20401;-64
2022/04/22 05:22:39;;;;;;;57.17;31.65;;;13.00;99.90;;;;;;4956140;29;20031;-65
2022/04/22 05:25:07;;;;;;;30.23;16.92;;;13.00;99.90;;;;;;4956134;29;20495;-64
2022/04/22 05:27:34;;;;;;;32.47;18.13;;;13.10;99.90;;;;;;4939076;29;20035;-64
2022/04/22 05:32:47;;;;;;;30.77;16.52;;;13.20;99.90;;;;;;4956125;29;20461;-64
2022/04/22 05:35:17;;;;;;;31.20;15.70;;;13.30;99.90;;;;;;4956138;29;20121;-64
2022/04/22 05:37:47;;;;;;;31.77;18.63;;;13.40;99.90;;;;;;4955252;28;20035;-64
2022/04/22 05:40:15;;;;;;;43.72;22.60;;;13.50;99.90;;;;;;4956253;29;20038;-65
2022/04/22 05:42:41;;;;;;;47.97;26.73;;;13.60;99.90;;;;;;4955960;29;20058;-64
2022/04/22 05:45:09;;;;;;;48.63;28.20;;;13.70;99.90;;;;;;4955657;29;20448;-64
2022/04/22 05:47:35;;;;;;;55.78;28.13;;;13.70;99.90;;;;;;4955854;29;20130;-65
2022/04/22 05:50:01;;;;;;;54.58;33.25;;;13.80;99.90;;;;;;4955740;29;20031;-67
2022/04/22 05:52:27;;;;;;;37.92;20.95;;;13.80;99.90;;;;;;4955775;29;20082;-66
2022/04/22 05:54:54;;;;;;;37.38;23.13;;;13.90;99.90;;;;;;4955496;29;20027;-67
2022/04/22 05:57:20;;;;;;;65.30;38.92;;;13.90;99.90;;;;;;4938382;29;20035;-65
2022/04/22 05:59:48;;;;;;;67.72;39.88;;;13.90;99.90;;;;;;4938362;29;20086;-65
2022/04/22 06:02:14;;;;;;;57.08;33.90;;;14.00;99.90;;;;;;4938482;29;20023;-64
2022/04/22 06:04:39;;;;;;;17.88;11.15;;;13.90;99.90;;;;;;4938385;29;20031;-67
2022/04/22 06:07:05;;;;;;;22.23;10.27;;;14.00;99.90;;;;;;4955992;29;20058;-65
2022/04/22 06:12:15;;;;;;;19.77;9.50;;;14.00;99.90;;;;;;4955368;29;20039;-65
2022/04/22 06:14:41;;;;;;;25.52;11.18;;;14.00;99.90;;;;;;4938194;29;20028;-66
2022/04/22 06:17:06;;;;;;;12.90;7.22;;;14.10;99.90;;;;;;4955550;29;20118;-66
2022/04/22 06:19:32;;;;;;;21.48;10.13;;;14.10;99.90;;;;;;4955416;29;20159;-64
2022/04/22 06:21:58;;;;;;;21.42;10.57;;;14.10;99.90;;;;;;4955395;29;20027;-64
2022/04/22 06:24:24;;;;;;;16.08;8.05;;;14.10;99.90;;;;;;4955554;29;20384;-64
2022/04/22 06:26:50;;;;;;;13.43;8.82;;;14.10;99.90;;;;;;4937705;29;20456;-64
2022/04/22 06:29:15;;;;;;;16.15;9.05;;;14.10;99.90;;;;;;4955319;29;20031;-66
2022/04/22 06:31:41;;;;;;;16.10;9.20;;;14.10;99.90;;;;;;4955092;29;20121;-65
2022/04/22 06:34:07;;;;;;;13.48;8.57;;;14.10;99.90;;;;;;4955291;29;20059;-65
2022/04/22 06:36:33;;;;;;;19.85;10.07;;;14.20;99.90;;;;;;4954959;29;20063;-65
2022/04/22 06:39:01;;;;;;;16.45;9.55;;;14.30;99.90;;;;;;4938022;29;20031;-65
2022/04/22 06:46:57;;;;;;;15.48;7.55;;;14.50;99.90;;;;;;4935730;29;20170;-66
2022/04/22 06:49:23;;;;;;;16.50;8.77;;;14.60;99.90;;;;;;4935440;29;20461;-65
2022/04/22 06:51:50;;;;;;;19.52;9.23;;;14.70;99.90;;;;;;4935762;29;20154;-65
2022/04/22 06:54:17;;;;;;;19.35;11.68;;;14.80;99.90;;;;;;4935896;29;20115;-66
2022/04/22 06:56:44;;;;;;;27.23;12.32;;;14.80;99.90;;;;;;4935570;29;20521;-65
2022/04/22 06:59:10;;;;;;;22.35;11.65;;;14.90;99.90;;;;;;4935817;29;20034;-66
2022/04/22 07:01:36;;;;;;;19.42;9.48;;;15.10;99.90;;;;;;4936055;29;20466;-65
2022/04/22 07:04:03;;;;;;;18.02;9.95;;;15.10;99.90;;;;;;4936048;29;20031;-65
2022/04/22 07:06:29;;;;;;;17.58;9.80;;;15.30;99.90;;;;;;4918699;29;20032;-65
2022/04/22 07:08:56;;;;;;;17.13;9.15;;;15.30;99.90;;;;;;4918512;29;20035;-66
2022/04/22 07:11:24;;;;;;;15.30;9.60;;;15.40;99.90;;;;;;4935721;29;20039;-74
2022/04/22 07:13:51;;;;;;;20.25;8.68;;;15.50;99.90;;;;;;4935678;29;20032;-66
2022/04/22 07:16:18;;;;;;;18.65;10.85;;;15.60;99.90;;;;;;4935402;29;20396;-65
2022/04/22 07:18:44;;;;;;;15.52;9.13;;;15.70;99.90;;;;;;4937172;29;20031;-67
2022/04/22 07:21:10;;;;;;;21.38;9.32;;;15.80;99.90;;;;;;4954743;29;20033;-68
2022/04/22 07:23:36;;;;;;;18.10;8.10;;;15.90;99.90;;;;;;4954486;28;20377;-66
2022/04/22 07:26:07;;;;;;;15.70;7.95;;;15.90;99.90;;;;;;4954789;29;20031;-69
2022/04/22 07:28:33;;;;;;;16.40;8.33;;;16.10;99.90;;;;;;4955019;29;20041;-70
2022/04/22 07:31:01;;;;;;;18.92;8.48;;;16.10;99.90;;;;;;4954716;29;20090;-70
2022/04/22 07:33:27;;;;;;;20.15;8.63;;;16.20;99.90;;;;;;4954320;29;20058;-69
2022/04/22 07:35:53;;;;;;;18.65;8.88;;;16.30;99.90;;;;;;4954908;29;20032;-67
2022/04/22 07:38:19;;;;;;;16.92;8.13;;;16.40;99.90;;;;;;4952316;29;20069;-70
2022/04/22 07:40:50;;;;;;;12.77;7.63;;;16.40;99.90;;;;;;4953966;29;20024;-63
2022/04/22 07:48:47;;;;;;;11.30;6.72;;;16.80;99.90;;;;;;4934804;29;20046;-64
2022/04/22 07:51:13;;;;;;;18.20;8.88;;;16.90;99.90;;;;;;4935198;29;20501;-68
2022/04/22 07:53:39;;;;;;;19.40;8.00;;;17.00;99.90;;;;;;4918191;29;20074;-69
2022/04/22 07:56:06;;;;;;;21.02;8.48;;;17.20;99.90;;;;;;4935114;29;20441;-71
2022/04/22 07:58:32;;;;;;;19.98;10.02;;;17.30;99.90;;;;;;4935241;29;20054;-69
2022/04/22 08:00:58;;;;;;;12.25;6.28;;;17.40;99.90;;;;;;4936208;29;20027;-69
2022/04/22 08:03:24;;;;;;;17.73;7.88;;;17.50;99.90;;;;;;4938675;29;20453;-68
2022/04/22 08:05:50;;;;;;;14.25;6.97;;;17.70;99.90;;;;;;4938405;29;20050;-69
2022/04/22 08:08:16;;;;;;;14.88;7.20;;;17.90;99.90;;;;;;4938360;29;20057;-69
2022/04/22 08:10:42;;;;;;;22.05;7.38;;;17.90;99.90;;;;;;4938483;29;20027;-70
2022/04/22 08:13:08;;;;;;;16.75;7.50;;;18.10;99.90;;;;;;4938384;29;20119;-70
2022/04/22 08:15:34;;;;;;;13.50;5.88;;;18.20;99.90;;;;;;4938495;29;20433;-69
2022/04/22 08:18:01;;;;;;;12.27;6.25;;;18.30;99.90;;;;;;4938310;29;20124;-69
2022/04/22 08:20:30;;;;;;;16.98;6.70;;;18.40;99.90;;;;;;4938003;29;20176;-69
2022/04/22 08:22:55;;;;;;;18.08;7.00;;;18.50;99.90;;;;;;4938217;29;20043;-69
2022/04/22 08:25:21;;;;;;;11.13;6.90;;;18.70;99.90;;;;;;4921193;29;20408;-69
2022/04/22 08:27:47;;;;;;;15.82;6.35;;;18.90;99.90;;;;;;4938332;29;20051;-66
2022/04/22 08:30:13;;;;;;;13.85;6.50;;;19.00;99.90;;;;;;4938270;29;20203;-66
2022/04/22 08:32:39;;;;;;;16.70;6.47;;;19.10;99.90;;;;;;4937693;29;20083;-70
2022/04/22 08:35:06;;;;;;;15.95;6.65;;;19.10;99.90;;;;;;4937925;29;20031;-67
2022/04/22 08:37:32;;;;;;;11.85;5.43;;;19.20;99.90;;;;;;4938045;29;20031;-68
2022/04/22 08:39:58;;;;;;;19.52;8.00;;;19.30;99.90;;;;;;4937736;29;20039;-70
2022/04/22 08:42:25;;;;;;;14.32;6.45;;;19.30;99.90;;;;;;4937905;29;20114;-70
2022/04/22 08:44:52;;;;;;;13.93;6.55;;;19.50;99.90;;;;;;4937867;29;20063;-70
2022/04/22 08:50:13;;;;;;;12.98;5.40;;;19.70;99.90;;;;;;4937449;29;20043;-71
2022/04/22 08:52:42;;;;;;;14.48;6.28;;;19.90;99.90;;;;;;4937562;29;20381;-69
2022/04/22 08:55:08;;;;;;;14.30;6.55;;;20.00;99.90;;;;;;4936378;29;20122;-69
2022/04/22 08:57:35;;;;;;;16.60;5.47;;;20.20;99.90;;;;;;4937181;29;20075;-69
2022/04/22 09:00:07;;;;;;;9.68;5.25;;;20.30;99.60;;;;;;4936218;29;20031;-68
2022/04/22 09:02:33;;;;;;;12.23;5.63;;;20.50;99.90;;;;;;4936527;29;20457;-66
2022/04/22 09:04:59;;;;;;;14.13;5.25;;;20.60;99.60;;;;;;4936995;29;20477;-68
2022/04/22 09:07:27;;;;;;;16.38;6.75;;;20.80;98.80;;;;;;4937224;29;20032;-69
2022/04/22 09:09:53;;;;;;;16.40;6.60;;;20.90;98.10;;;;;;4937576;29;20034;-69
2022/04/22 09:12:22;;;;;;;13.98;5.40;;;21.10;98.20;;;;;;4936153;29;20429;-69
2022/04/22 09:14:53;;;;;;;14.80;4.65;;;21.20;96.60;;;;;;4937530;29;20106;-69
2022/04/22 09:17:27;;;;;;;10.98;4.97;;;21.40;95.20;;;;;;4937152;29;20075;-69
2022/04/22 09:19:55;;;;;;;16.40;5.47;;;21.60;96.10;;;;;;4937412;29;20039;-69
2022/04/22 09:22:28;;;;;;;12.75;6.32;;;21.70;94.50;;;;;;4937377;29;20031;-70
2022/04/22 09:24:56;;;;;;;14.40;4.97;;;21.90;95.40;;;;;;4920162;29;20038;-69
2022/04/22 09:27:33;;;;;;;11.18;4.53;;;22.10;94.40;;;;;;4919970;29;20110;-70
2022/04/22 09:30:00;;;;;;;11.73;4.50;;;22.20;92.90;;;;;;4937155;29;20035;-69
2022/04/22 09:32:32;;;;;;;17.45;5.78;;;22.30;91.90;;;;;;4937004;29;20146;-70
2022/04/22 09:35:10;;;;;;;15.63;5.65;;;22.30;92.50;;;;;;4920016;29;20071;-69
2022/04/22 09:43:39;;;;;;;19.08;7.78;;;22.80;93.20;;;;;;4937005;29;20039;-69
2022/04/22 09:46:05;;;;;;;13.27;5.32;;;23.10;93.00;;;;;;4946255;29;20027;-69
2022/04/22 09:48:44;;;;;;;26.80;9.52;;;23.20;90.90;;;;;;4946635;29;20023;-69
2022/04/22 09:51:24;;;;;;;23.35;7.18;;;23.50;92.20;;;;;;4936358;29;20082;-69
2022/04/22 09:54:05;;;;;;;14.00;5.63;;;23.50;89.50;;;;;;4947907;29;20039;-69
2022/04/22 09:56:34;;;;;;;14.38;6.40;;;23.60;87.80;;;;;;4955401;29;20039;-71
2022/04/22 09:59:23;;;;;;;11.52;4.22;;;23.70;86.80;;;;;;4954469;29;20043;-68
2022/04/22 10:01:50;;;;;;;20.63;8.60;;;23.90;85.90;;;;;;4938046;29;20041;-69
2022/04/22 10:04:20;;;;;;;8.27;3.65;;;24.20;87.70;;;;;;4955701;29;20028;-68
2022/04/22 10:06:47;;;;;;;14.07;5.88;;;24.30;82.90;;;;;;4955970;29;20301;-68
2022/04/22 10:09:16;;;;;;;18.45;7.35;;;24.30;82.00;;;;;;4938407;29;20031;-68
2022/04/22 10:11:51;;;;;;;16.10;7.15;;;24.40;81.40;;;;;;4955230;28;20396;-68
2022/04/22 10:14:28;;;;;;;24.80;9.50;;;24.50;78.70;;;;;;4953908;29;20031;-69
2022/04/22 10:16:54;;;;;;;12.48;3.17;;;24.50;79.30;;;;;;4923495;29;20039;-69
2022/04/22 10:19:20;;;;;;;13.70;5.72;;;24.50;82.90;;;;;;4936260;29;20024;-69
2022/04/22 10:21:50;;;;;;;19.63;8.23;;;24.90;83.90;;;;;;4936171;29;20074;-71
2022/04/22 10:24:17;;;;;;;19.30;5.80;;;25.00;82.00;;;;;;4935423;29;20385;-69
2022/04/22 10:26:43;;;;;;;19.92;6.85;;;25.40;80.30;;;;;;4936113;29;20083;-70
2022/04/22 10:29:10;;;;;;;16.80;6.72;;;25.80;79.30;;;;;;4936162;29;20358;-70
2022/04/22 10:31:36;;;;;;;18.23;7.60;;;26.50;80.00;;;;;;4935897;29;20114;-70
2022/04/22 10:34:08;;;;;;;15.60;4.00;;;26.70;78.30;;;;;;4936032;29;20453;-70
2022/04/22 10:36:34;;;;;;;23.10;7.57;;;27.10;75.70;;;;;;4935613;29;20040;-69
2022/04/22 10:39:00;;;;;;;15.20;4.63;;;27.70;77.40;;;;;;4936098;29;20042;-70
2022/04/22 10:41:26;;;;;;;15.05;4.15;;;28.50;73.00;;;;;;4935893;29;20548;-71
2022/04/22 10:49:43;;;;;;;13.02;6.35;;;29.80;66.90;;;;;;4935630;29;20062;-69
2022/04/22 10:52:10;;;;;;;11.87;4.43;;;30.20;68.40;;;;;;4935831;29;20063;-70
2022/04/22 10:54:49;;;;;;;19.70;6.63;;;;;;;;;;4935768;29;20262;-70
2022/04/22 10:57:34;;;;;;;13.18;4.90;;;;;;;;;;4935692;29;20032;-68
2022/04/22 11:00:11;;;;;;;9.88;4.90;;;;;;;;;;4935655;29;20023;-69
2022/04/22 11:02:42;;;;;;;26.48;9.15;;;;;;;;;;4934491;29;20040;-69
2022/04/22 11:05:20;;;;;;;20.35;6.13;;;;;;;;;;4917451;29;20031;-69
2022/04/22 11:07:58;;;;;;;15.73;3.72;;;;;;;;;;4935144;29;20071;-69
2022/04/22 11:10:26;;;;;;;20.02;6.93;;;;;;;;;;4935738;29;20027;-69
2022/04/22 11:12:59;;;;;;;29.58;10.45;;;;;;;;;;4935770;29;20156;-69
2022/04/22 11:15:43;;;;;;;17.77;5.78;;;33.40;69.80;;;;;;4935659;29;20024;-69
2022/04/22 11:18:13;;;;;;;25.92;8.98;;;33.40;72.90;;;;;;4935620;29;20111;-69
2022/04/22 11:20:43;;;;;;;13.40;3.83;;;33.40;66.40;;;;;;4935385;29;20102;-71
2022/04/22 11:23:15;;;;;;;18.00;5.60;;;;;;;;;;4935659;29;20032;-70
2022/04/22 11:25:43;;;;;;;20.17;4.20;;;34.50;54.30;;;;;;4935528;29;20035;-70
2022/04/22 11:28:09;;;;;;;14.43;3.40;;;34.50;52.90;;;;;;4936964;29;20031;-69
2022/04/22 11:30:36;;;;;;;14.82;4.40;;;34.70;52.10;;;;;;4953737;29;20067;-71
2022/04/22 11:33:12;;;;;;;20.52;3.20;;;;;;;;;;4954336;29;20396;-71
2022/04/22 11:35:39;;;;;;;22.70;4.43;;;;;;;;;;4955013;28;20033;-70
2022/04/22 11:38:06;;;;;;;19.35;3.83;;;;;;;;;;4958216;29;20035;-69
2022/04/22 11:40:39;;;;;;;9.13;3.35;;;;;;;;;;4940951;29;20038;-71
2022/04/22 11:43:14;;;;;;;20.80;4.00;;;34.80;51.90;;;;;;4958221;29;20023;-69
2022/04/22 11:45:45;;;;;;;18.00;4.20;;;36.10;49.20;;;;;;4958212;29;20115;-69
2022/04/22 11:48:17;;;;;;;10.07;2.90;;;36.50;50.70;;;;;;4958072;29;20361;-69
2022/04/22 11:50:45;;;;;;;18.23;3.65;;;36.20;49.00;;;;;;4958181;29;20110;-69
2022/04/22 11:53:26;;;;;;;18.50;4.10;;;36.00;48.50;;;;;;4958084;29;20038;-67
2022/04/22 11:55:52;;;;;;;;;;;34.70;48.20;;;;;;4958239;29;20023;-69
2022/04/22 11:58:28;;;;;;;11.52;3.40;;;;;;;;;;4956009;29;19962;-69
2022/04/22 12:06:24;;;;;;;15.52;3.40;;;;;;;;;;4957601;29;20042;-68
2022/04/22 12:09:05;;;;;;;14.32;3.30;;;37.20;46.70;;;;;;4957788;29;20030;-68
2022/04/22 12:11:39;;;;;;;24.05;4.60;;;37.30;46.00;;;;;;4957669;29;20110;-68
2022/04/22 12:14:05;;;;;;;7.32;3.13;;;36.50;44.90;;;;;;4957774;29;20508;-67
2022/04/22 12:16:32;;;;;;;11.73;3.40;;;;;;;;;;4957594;29;20035;-68
2022/04/22 12:19:00;;;;;;;14.50;3.25;;;37.40;46.60;;;;;;4957687;29;20022;-68
2022/04/22 12:21:27;;;;;;;13.30;3.13;;;;;;;;;;4957474;28;20365;-67
2022/04/22 12:24:02;;;;;;;18.67;3.67;;;37.80;73.30;;;;;;4957225;28;20387;-68
2022/04/22 12:26:34;;;;;;;16.00;3.35;;;37.40;46.50;;;;;;4956711;29;20448;-66
2022/04/22 12:29:16;;;;;;;22.23;3.72;;;37.90;45.60;;;;;;4957367;29;20035;-67
2022/04/22 12:31:43;;;;;;;11.93;4.10;;;38.30;45.60;;;;;;4957179;29;20396;-66
2022/04/22 12:34:26;;;;;;;15.32;3.63;;;38.90;82.60;;;;;;4957341;29;20027;-66
2022/04/22 12:36:52;;;;;;;11.77;2.92;;;38.50;45.70;;;;;;4957314;29;20039;-67
2022/04/22 12:39:38;;;;;;;9.40;3.33;;;37.50;45.20;;;;;;4957233;29;20083;-67
2022/04/22 12:42:06;;;;;;;15.18;3.45;;;37.10;45.00;;;;;;4957477;29;20171;-67
2022/04/22 12:44:32;;;;;;;13.60;3.08;;;35.90;46.30;;;;;;4957181;29;20107;-68
2022/04/22 12:52:35;;;;;;;9.50;3.55;;;33.30;47.80;;;;;;4956862;29;20046;-67
2022/04/22 12:55:08;;;;;;;14.77;4.13;;;31.30;49.30;;;;;;4956983;29;20388;-67
2022/04/22 12:57:37;;;;;;;12.02;3.13;;;31.10;50.20;;;;;;4957102;29;20040;-68
2022/04/22 13:00:18;;;;;;;15.48;3.22;;;30.00;51.50;;;;;;4957006;29;20540;-66
2022/04/22 13:02:44;;;;;;;11.18;3.63;;;30.60;53.60;;;;;;4953716;29;20024;-66
2022/04/22 13:05:21;;;;;;;16.13;3.53;;;31.00;53.10;;;;;;4946391;29;20086;-67
2022/04/22 13:07:49;;;;;;;10.27;3.20;;;;;;;;;;4941822;29;20066;-67
2022/04/22 13:10:17;;;;;;;9.75;3.53;;;;;;;;;;4946379;29;20110;-67
2022/04/22 13:12:44;;;;;;;35.33;4.93;;;26.80;58.10;;;;;;4944679;29;20011;-67
2022/04/22 13:15:19;;;;;;;9.38;3.20;;;26.20;61.00;;;;;;4945898;29;20420;-66
2022/04/22 13:17:51;;;;;;;12.93;3.80;;;25.90;62.20;;;;;;4943477;29;20464;-66
2022/04/22 13:20:19;;;;;;;9.82;3.83;;;25.50;61.60;;;;;;4943726;29;20078;-66
2022/04/22 13:22:45;;;;;;;13.05;3.83;;;25.50;62.10;;;;;;4941170;29;20030;-67
2022/04/22 13:25:13;;;;;;;8.60;3.35;;;25.30;60.90;;;;;;4918080;29;20111;-68
2022/04/22 13:27:39;;;;;;;18.08;4.03;;;25.10;63.10;;;;;;4918163;29;20447;-67
2022/04/22 13:30:07;;;;;;;8.43;3.60;;;25.00;62.50;;;;;;4918113;29;20056;-66
2022/04/22 13:32:33;;;;;;;15.18;4.10;;;24.90;63.10;;;;;;4917683;29;20092;-66
2022/04/22 13:34:58;;;;;;;11.52;3.42;;;25.00;64.00;;;;;;4936714;29;20028;-67
2022/04/22 13:37:24;;;;;;;11.02;3.65;;;25.10;62.90;;;;;;4936710;29;20390;-68
2022/04/22 13:39:50;;;;;;;13.93;4.78;;;24.90;75.70;;;;;;4936907;29;20051;-68
2022/04/22 13:42:18;;;;;;;8.77;4.18;;;24.80;66.70;;;;;;4936651;29;20035;-69
2022/04/22 13:52:56;;;;;;;17.40;4.43;;;24.00;68.30;;;;;;4936375;29;20038;-68
2022/04/22 13:55:22;;;;;;;15.10;4.00;;;23.70;69.10;;;;;;4919440;29;20457;-67
2022/04/22 13:57:48;;;;;;;11.55;4.72;;;23.60;70.00;;;;;;4919150;29;20115;-66
2022/04/22 14:00:14;;;;;;;14.75;4.82;;;23.40;71.00;;;;;;4936196;29;20035;-69